createdAt,value
2018-05-31T00:01:34.912Z,7.73
2018-05-31T00:04:03.197Z,7.77
2018-05-31T00:06:31.444Z,7.73
2018-05-31T00:08:59.787Z,7.90
2018-05-31T00:11:28.089Z,7.20
2018-05-31T00:13:56.362Z,8.13
2018-05-31T00:16:24.645Z,7.47
2018-05-31T00:18:52.955Z,7.43
2018-05-31T00:21:21.221Z,7.50
2018-05-31T00:23:50.350Z,8.13
2018-05-31T00:26:18.610Z,7.53
2018-05-31T00:28:46.939Z,7.40
2018-05-31T00:49:02.059Z,7.93
2018-05-31T00:51:31.932Z,8.10
2018-05-31T00:54:00.205Z,7.70
2018-05-31T00:56:28.489Z,7.77
2018-05-31T00:58:56.767Z,7.23
2018-05-31T01:01:26.045Z,8.17
2018-05-31T01:21:40.964Z,9.30
2018-05-31T01:24:09.275Z,9.03
2018-05-31T01:26:38.424Z,9.17
2018-05-31T01:46:54.281Z,9.20
2018-05-31T01:49:22.566Z,9.23
2018-05-31T01:51:50.905Z,8.83
2018-05-31T01:54:19.223Z,8.67
2018-05-31T01:56:47.755Z,8.83
2018-05-31T01:59:16.773Z,8.90
2018-05-31T02:01:45.062Z,11.03
2018-05-31T02:04:13.339Z,9.90
2018-05-31T02:06:41.639Z,10.57
2018-05-31T02:09:10.543Z,11.20
2018-05-31T02:11:39.750Z,10.60
2018-05-31T02:14:07.993Z,10.53
2018-05-31T02:16:36.336Z,10.37
2018-05-31T02:36:52.685Z,10.87
2018-05-31T02:39:22.529Z,10.70
2018-05-31T02:41:50.818Z,10.77
2018-05-31T02:44:19.214Z,9.30
2018-05-31T02:46:47.498Z,10.00
2018-05-31T02:49:15.775Z,9.97
2018-05-31T02:51:44.605Z,10.47
2018-05-31T03:12:02.568Z,9.00
2018-05-31T03:14:31.741Z,9.70
2018-05-31T03:17:00.840Z,9.17
2018-05-31T03:19:29.140Z,8.80
2018-05-31T03:21:57.419Z,9.27
2018-05-31T03:42:11.507Z,9.30
2018-05-31T03:44:40.601Z,9.70
2018-05-31T03:47:09.683Z,9.50
2018-05-31T03:49:37.981Z,9.27
2018-05-31T03:52:06.225Z,9.13
2018-05-31T04:12:20.728Z,9.27
2018-05-31T04:14:49.005Z,9.37
2018-05-31T04:17:18.240Z,9.43
2018-05-31T04:19:47.310Z,9.10
2018-05-31T04:22:15.548Z,9.80
2018-05-31T04:24:43.846Z,9.60
2018-05-31T04:27:12.347Z,9.00
2018-05-31T04:29:40.631Z,9.40
2018-05-31T04:32:08.926Z,8.97
2018-05-31T04:34:37.208Z,9.47
2018-05-31T04:37:05.449Z,9.97
2018-05-31T04:39:34.323Z,10.13
2018-05-31T04:42:02.612Z,9.80
2018-05-31T04:44:30.904Z,10.03
2018-05-31T04:47:01.044Z,8.67
2018-05-31T04:49:29.926Z,9.40
2018-05-31T04:51:58.195Z,9.63
2018-05-31T04:54:26.502Z,9.50
2018-05-31T04:56:55.795Z,10.20
2018-05-31T04:59:24.071Z,9.60
2018-05-31T05:01:52.366Z,9.73
2018-05-31T05:04:21.780Z,9.97
2018-05-31T05:06:51.578Z,9.47
2018-05-31T05:09:19.854Z,9.77
2018-05-31T05:11:48.133Z,9.63
2018-05-31T05:14:17.228Z,9.43
2018-05-31T05:16:45.508Z,8.33
2018-05-31T05:37:00.955Z,13.00
2018-05-31T05:39:29.222Z,12.83
2018-05-31T05:41:58.318Z,13.73
2018-05-31T05:44:28.341Z,13.50
2018-05-31T05:46:56.623Z,12.93
2018-05-31T05:49:25.067Z,13.87
2018-05-31T05:51:53.405Z,14.10
2018-05-31T05:54:22.488Z,13.23
2018-05-31T05:56:50.764Z,14.87
2018-05-31T05:59:20.307Z,16.37
2018-05-31T06:01:49.332Z,17.87
2018-05-31T06:04:17.670Z,18.03
2018-05-31T06:06:45.946Z,16.50
2018-05-31T06:09:14.355Z,16.90
2018-05-31T06:11:43.402Z,17.57
2018-05-31T06:14:11.747Z,17.30
2018-05-31T06:16:40.003Z,16.23
2018-05-31T06:19:08.312Z,16.03
2018-05-31T06:21:36.648Z,16.97
2018-05-31T06:24:04.928Z,15.30
2018-05-31T06:26:33.248Z,14.33
2018-05-31T06:29:02.303Z,13.00
2018-05-31T06:31:30.665Z,13.67
2018-05-31T06:33:59.742Z,12.97
2018-05-31T06:36:28.055Z,12.77
2018-05-31T06:38:56.327Z,11.60
2018-05-31T06:41:26.346Z,12.20
2018-05-31T06:43:54.677Z,11.23
2018-05-31T07:04:12.097Z,10.00
2018-05-31T07:06:40.518Z,10.50
2018-05-31T07:09:09.525Z,10.17
2018-05-31T07:11:37.773Z,10.53
2018-05-31T07:14:06.899Z,10.40
2018-05-31T07:16:35.301Z,9.83
2018-05-31T07:19:04.080Z,9.80
2018-05-31T07:21:32.374Z,10.50
2018-05-31T07:24:00.664Z,10.10
2018-05-31T07:26:28.986Z,9.77
2018-05-31T07:28:58.800Z,11.27
2018-05-31T07:31:27.894Z,10.43
2018-05-31T07:33:56.901Z,10.53
2018-05-31T07:36:25.953Z,9.70
2018-05-31T07:38:54.242Z,10.67
2018-05-31T07:41:22.563Z,10.10
2018-05-31T07:43:51.739Z,10.37
2018-05-31T07:46:19.978Z,11.40
2018-05-31T07:48:48.233Z,11.27
2018-05-31T07:51:17.493Z,10.87
2018-05-31T07:53:45.807Z,10.97
2018-05-31T07:56:14.091Z,10.67
2018-05-31T07:58:42.428Z,10.30
2018-05-31T08:01:11.998Z,10.27
2018-05-31T08:21:27.766Z,11.00
2018-05-31T08:23:56.087Z,9.87
2018-05-31T08:26:24.358Z,10.20
2018-05-31T08:28:53.625Z,10.83
2018-05-31T08:31:22.754Z,10.57
2018-05-31T08:33:51.859Z,9.87
2018-05-31T08:36:20.342Z,10.63
2018-05-31T08:38:48.649Z,10.30
2018-05-31T08:41:18.673Z,9.87
2018-05-31T08:43:46.993Z,10.00
2018-05-31T09:04:00.750Z,11.27
2018-05-31T09:06:29.174Z,12.03
2018-05-31T09:08:59.637Z,11.03
2018-05-31T09:11:27.971Z,10.97
2018-05-31T09:13:56.447Z,11.30
2018-05-31T09:16:24.756Z,10.80
2018-05-31T09:18:53.023Z,11.50
2018-05-31T09:21:21.444Z,10.43
2018-05-31T09:23:49.721Z,9.87
2018-05-31T09:26:18.674Z,10.17
2018-05-31T09:28:47.316Z,11.53
2018-05-31T09:31:16.358Z,11.17
2018-05-31T09:33:44.631Z,11.90
2018-05-31T09:36:12.945Z,10.20
2018-05-31T09:38:41.249Z,10.57
2018-05-31T09:41:10.997Z,10.50
2018-05-31T09:43:39.545Z,9.33
2018-05-31T09:46:08.568Z,10.20
2018-05-31T09:48:36.854Z,10.67
2018-05-31T09:51:05.185Z,11.77
2018-05-31T10:11:19.843Z,9.77
2018-05-31T10:13:48.175Z,11.20
2018-05-31T10:16:16.512Z,11.30
2018-05-31T10:18:44.822Z,10.70
2018-05-31T10:21:13.481Z,9.77
2018-05-31T10:23:41.766Z,10.80
2018-05-31T10:26:11.257Z,10.20
2018-05-31T10:28:39.578Z,10.20
2018-05-31T10:31:07.814Z,9.67
2018-05-31T10:33:38.980Z,9.50
2018-05-31T10:36:07.253Z,10.23
2018-05-31T10:38:35.537Z,10.67
2018-05-31T10:41:03.817Z,10.33
2018-05-31T10:43:33.568Z,10.37
2018-05-31T10:46:01.806Z,9.80
2018-05-31T11:06:15.725Z,11.30
2018-05-31T11:08:44.080Z,10.90
2018-05-31T11:11:13.090Z,10.07
2018-05-31T11:31:30.041Z,8.07
2018-05-31T11:33:58.286Z,9.27
2018-05-31T11:36:26.529Z,9.07
2018-05-31T11:38:55.550Z,9.73
2018-05-31T11:41:23.795Z,7.97
2018-05-31T11:43:52.070Z,8.33
2018-05-31T11:46:21.183Z,7.80
2018-05-31T11:48:49.446Z,7.27
2018-05-31T11:51:17.743Z,6.47
2018-05-31T11:53:46.887Z,5.47
2018-05-31T11:56:15.167Z,6.60
2018-05-31T11:58:43.446Z,6.33
2018-05-31T12:01:13.925Z,6.67
2018-05-31T12:21:28.037Z,5.33
2018-05-31T12:23:56.902Z,5.10
2018-05-31T12:26:25.168Z,4.57
2018-05-31T12:28:53.427Z,5.23
2018-05-31T12:31:22.372Z,5.63
2018-05-31T12:33:51.394Z,6.20
2018-05-31T12:36:20.341Z,6.30
2018-05-31T12:38:48.682Z,5.70
2018-05-31T12:59:05.240Z,5.53
2018-05-31T13:01:33.938Z,6.00
2018-05-31T13:04:02.182Z,5.57
2018-05-31T13:06:30.474Z,5.17
2018-05-31T13:08:58.775Z,5.70
2018-05-31T13:29:12.406Z,4.97
2018-05-31T13:31:40.732Z,5.17
2018-05-31T13:34:10.436Z,5.10
2018-05-31T13:54:24.601Z,4.40
2018-05-31T13:56:53.588Z,4.20
2018-05-31T13:59:21.859Z,4.77
2018-05-31T14:01:50.179Z,4.83
2018-05-31T14:04:18.446Z,4.30
2018-05-31T14:06:46.738Z,3.77
2018-05-31T14:09:15.330Z,4.00
2018-05-31T14:11:43.590Z,4.37
2018-05-31T14:14:11.858Z,4.10
2018-05-31T14:16:40.272Z,4.20
2018-05-31T14:19:08.538Z,3.90
2018-05-31T14:21:36.854Z,4.47
2018-05-31T14:24:05.225Z,4.10
2018-05-31T14:44:20.450Z,4.13
2018-05-31T14:46:49.750Z,3.80
2018-05-31T14:49:18.786Z,3.90
2018-05-31T14:51:47.017Z,3.77
2018-05-31T14:54:15.350Z,4.27
2018-05-31T14:56:43.611Z,4.03
2018-05-31T14:59:12.783Z,3.50
2018-05-31T15:01:42.134Z,3.92
2018-05-31T15:04:10.453Z,3.80
2018-05-31T15:06:38.693Z,3.77
2018-05-31T15:09:07.007Z,4.40
2018-05-31T15:11:35.269Z,3.80
2018-05-31T15:14:04.111Z,3.60
2018-05-31T15:16:32.463Z,3.58
2018-05-31T15:19:00.752Z,3.87
2018-05-31T15:21:29.039Z,3.53
2018-05-31T15:23:58.957Z,3.77
2018-05-31T15:26:27.260Z,3.70
2018-05-31T15:46:43.884Z,4.40
2018-05-31T16:06:59.213Z,5.40
2018-05-31T16:09:28.352Z,5.73
2018-05-31T16:11:56.639Z,5.47
2018-05-31T16:14:26.299Z,6.13
2018-05-31T16:16:54.598Z,7.23
2018-05-31T16:19:22.895Z,7.10
2018-05-31T16:21:51.175Z,7.23
2018-05-31T16:42:05.101Z,11.43
2018-05-31T16:44:33.378Z,12.00
2018-05-31T16:47:01.755Z,12.00
2018-05-31T16:49:31.175Z,12.70
2018-05-31T16:52:00.214Z,12.90
2018-05-31T17:12:15.674Z,12.90
2018-05-31T17:14:45.432Z,13.33
2018-05-31T17:17:13.722Z,12.90
2018-05-31T17:19:42.058Z,11.60
2018-05-31T17:22:10.360Z,10.20
2018-05-31T17:24:38.646Z,10.57
2018-05-31T17:27:06.920Z,10.80
2018-05-31T18:08:06.005Z,9.77
2018-05-31T18:28:21.806Z,10.03
2018-05-31T18:30:50.138Z,9.63
2018-05-31T18:33:18.434Z,9.73
2018-05-31T18:35:48.181Z,9.10
2018-05-31T18:38:20.172Z,9.17
2018-05-31T18:40:48.430Z,9.73
2018-05-31T18:43:16.731Z,10.00
2018-05-31T19:03:31.138Z,9.10
2018-05-31T19:05:59.457Z,8.97
2018-05-31T19:08:28.448Z,5.87
2018-05-31T19:10:57.497Z,5.47
2018-05-31T19:13:31.448Z,5.27
2018-05-31T19:16:02.499Z,5.10
2018-05-31T19:18:36.396Z,4.23
2018-05-31T19:21:04.673Z,4.60
2018-05-31T19:23:33.710Z,3.97
2018-05-31T19:26:02.767Z,3.77
2018-05-31T19:28:31.437Z,3.17
2018-05-31T19:31:05.350Z,3.10
2018-05-31T19:33:33.700Z,2.50
2018-05-31T19:36:07.760Z,2.90
2018-05-31T19:38:36.590Z,2.77
2018-05-31T19:58:57.750Z,2.87
2018-05-31T20:01:31.757Z,2.87
2018-05-31T20:04:00.038Z,2.57
2018-05-31T20:06:28.506Z,2.83
2018-05-31T20:08:57.091Z,2.60
2018-05-31T20:11:26.594Z,3.30
2018-05-31T20:13:54.829Z,2.60
2018-05-31T20:16:23.323Z,2.93
2018-05-31T20:36:37.651Z,3.80
2018-05-31T20:39:06.873Z,4.20
2018-05-31T20:41:35.113Z,4.00
2018-05-31T20:44:04.121Z,3.87
2018-05-31T20:46:33.661Z,4.10
2018-05-31T20:49:02.510Z,4.13
2018-05-31T20:51:31.106Z,4.87
2018-05-31T20:53:59.357Z,4.80
2018-05-31T20:56:27.667Z,5.30
2018-05-31T20:58:57.440Z,4.90
2018-05-31T21:01:25.998Z,5.70
2018-05-31T21:03:54.262Z,5.40
2018-05-31T21:06:22.530Z,5.97
2018-05-31T21:08:51.630Z,5.90
2018-05-31T21:11:20.699Z,5.60
2018-05-31T21:13:49.821Z,6.27
2018-05-31T21:16:19.016Z,5.70
2018-05-31T21:18:49.340Z,6.60
2018-05-31T21:21:17.701Z,6.57
2018-05-31T21:23:46.057Z,6.00
2018-05-31T21:26:15.063Z,5.20
2018-05-31T21:28:43.339Z,4.90
2018-05-31T21:31:11.658Z,5.53
2018-05-31T21:33:39.956Z,4.90
2018-05-31T21:53:54.321Z,5.03
2018-05-31T21:56:23.707Z,5.20
2018-05-31T21:58:51.978Z,5.30
2018-05-31T22:01:20.283Z,4.90
2018-05-31T22:03:48.542Z,5.07
2018-05-31T22:06:16.819Z,4.50
2018-05-31T22:08:45.140Z,4.70
2018-05-31T22:11:13.411Z,4.80
2018-05-31T22:31:27.431Z,4.70
2018-05-31T22:33:58.524Z,4.57
2018-05-31T22:54:13.681Z,5.40
2018-05-31T22:56:42.568Z,5.20
2018-05-31T22:59:11.619Z,4.87
2018-05-31T23:01:39.958Z,4.30
2018-05-31T23:04:08.218Z,3.50
2018-05-31T23:06:36.527Z,3.67
2018-05-31T23:09:05.542Z,3.80
2018-05-31T23:11:36.079Z,3.33
2018-05-31T23:31:50.782Z,3.23
2018-05-31T23:34:19.087Z,3.80
2018-05-31T23:36:48.110Z,3.70
2018-05-31T23:39:16.436Z,3.30
2018-05-31T23:41:45.470Z,3.50
2018-05-31T23:44:15.550Z,3.40
2018-05-31T23:46:44.071Z,3.63
2018-05-31T23:49:12.322Z,3.33
2018-05-31T23:51:41.156Z,4.07
2018-05-31T23:54:10.165Z,3.80
2018-05-31T23:56:38.443Z,3.90
